^^
Your Local Weather - Clay, NY Station Historical Data
Daily Summary for April 19, 2017 Units:  Metric    English   Both
« Previous Day
Next Day »
Daily Weekly Monthly Yearly Custom
  High: Low: Average:
Temperature: 13 °C 6.7 °C 10 °C
Dew Point: 8.9 °C -1.2 °C 5.1 °C
Humidity: 93% 53% 73%
Wind Speed: 16.1km/h 0km/h 5.8km/h
Wind Gust: 27.4km/h - -
Wind- - SE
Pressure: 1025.3 hPa 1016.5 hPa -
Precipitation: 15.49 mm    
Historical Graphs
 
 
Tabular Data for April 19, 2017
Time Temperature Dew Point Pressure Wind Wind Speed Wind Gust Humidity Rainfall Rate (Hourly) solar
00:02 7.2 °C -1.2 °C 1025.3 hPa Calm     55% 0 mm 0 W/m2
00:08 7.2 °C -1.2 °C 1025.3 hPa Calm     55% 0 mm 0 W/m2
00:14 7.3 °C -0.6 °C 1025.3 hPa Calm   4.8 km/h 57% 0 mm 0 W/m2
00:20 7.5 °C -0.2 °C 1025.3 hPa SSE 1.6 km/h 3.2 km/h 58% 0 mm 0 W/m2
00:26 7.7 °C 0.2 °C 1025.3 hPa East 3.2 km/h 4.8 km/h 59% 0 mm 0 W/m2
00:32 7.7 °C -0.1 °C 1025.3 hPa ESE 3.2 km/h 3.2 km/h 58% 0 mm 0 W/m2
00:38 7.7 °C 0.4 °C 1025.3 hPa East 1.6 km/h 3.2 km/h 60% 0 mm 0 W/m2
00:44 7.7 °C 0.4 °C 1025.3 hPa ENE 1.6 km/h 3.2 km/h 60% 0 mm 0 W/m2
00:50 7.8 °C 0.9 °C 1025.3 hPa ENE 3.2 km/h 3.2 km/h 62% 0 mm 0 W/m2
00:56 7.7 °C 0.4 °C 1025.3 hPa East 3.2 km/h 4.8 km/h 60% 0 mm 0 W/m2
01:02 7.8 °C 0.3 °C 1025.3 hPa East 3.2 km/h 3.2 km/h 59% 0 mm 0 W/m2
01:08 7.9 °C 0.1 °C 1024.9 hPa ENE 3.2 km/h 6.4 km/h 58% 0 mm 0 W/m2
01:14 7.8 °C 0.3 °C 1024.6 hPa ENE 3.2 km/h 3.2 km/h 59% 0 mm 0 W/m2
01:20 7.8 °C 0.7 °C 1024.9 hPa ESE 3.2 km/h 3.2 km/h 61% 0 mm 0 W/m2
01:26 7.8 °C 0.7 °C 1024.6 hPa ENE 1.6 km/h 4.8 km/h 61% 0 mm 0 W/m2
01:32 7.7 °C 0.4 °C 1024.6 hPa ENE 3.2 km/h 3.2 km/h 60% 0 mm 0 W/m2
01:38 7.9 °C 0.4 °C 1024.6 hPa ENE 3.2 km/h 3.2 km/h 59% 0 mm 0 W/m2
01:44 7.9 °C 1.1 °C 1024.6 hPa ENE 3.2 km/h 6.4 km/h 62% 0 mm 0 W/m2
01:50 7.8 °C 1.4 °C 1024.6 hPa ENE 3.2 km/h 4.8 km/h 64% 0 mm 0 W/m2
01:56 7.6 °C 1.2 °C 1024.6 hPa ENE 4.8 km/h 4.8 km/h 64% 0 mm 0 W/m2
02:04 7.7 °C 0.8 °C 1024.3 hPa ENE 4.8 km/h 4.8 km/h 62% 0 mm 0 W/m2
02:10 7.7 °C 0.9 °C 1024.6 hPa NE 4.8 km/h 4.8 km/h 62% 0 mm 0 W/m2
02:16 7.8 °C 0.7 °C 1024.6 hPa ENE 3.2 km/h 4.8 km/h 61% 0 mm 0 W/m2
02:22 7.7 °C 1.1 °C 1024.6 hPa ENE 3.2 km/h 4.8 km/h 63% 0 mm 0 W/m2
02:28 7.7 °C 1.1 °C 1024.3 hPa ENE 3.2 km/h 6.4 km/h 63% 0 mm 0 W/m2
02:34 7.6 °C 1 °C 1024.3 hPa ENE 3.2 km/h 6.4 km/h 63% 0 mm 0 W/m2
02:40 7.4 °C 1.3 °C 1024.3 hPa ENE 3.2 km/h 4.8 km/h 65% 0 mm 0 W/m2
02:46 7.4 °C 1.4 °C 1024.3 hPa ENE 3.2 km/h 4.8 km/h 66% 0 mm 0 W/m2
02:52 7.4 °C 1.5 °C 1024.3 hPa ENE 1.6 km/h 3.2 km/h 66% 0 mm 0 W/m2
02:58 7.1 °C 2 °C 1024.3 hPa ENE 1.6 km/h 3.2 km/h 70% 0 mm 0 W/m2
03:04 7.1 °C 1.7 °C 1024.3 hPa ENE 1.6 km/h 3.2 km/h 69% 0 mm 0 W/m2
03:10 6.8 °C 1.9 °C 1024.3 hPa ENE 1.6 km/h 3.2 km/h 71% 0 mm 0 W/m2
03:16 6.7 °C 1.8 °C 1024.3 hPa ENE 1.6 km/h 3.2 km/h 71% 0 mm 0 W/m2
03:22 7 °C 1.9 °C 1023.9 hPa ENE 1.6 km/h 1.6 km/h 70% 0 mm 0 W/m2
03:28 7.3 °C 2.2 °C 1023.9 hPa ENE 1.6 km/h 1.6 km/h 70% 0 mm 0 W/m2
03:34 7.2 °C 2.3 °C 1023.9 hPa Calm   1.6 km/h 71% 0 mm 0 W/m2
03:40 7.1 °C 2.2 °C 1024.3 hPa Calm     71% 0 mm 0 W/m2
03:46 7.3 °C 2.6 °C 1023.9 hPa NE 1.6 km/h 3.2 km/h 72% 0 mm 0 W/m2
03:52 7.3 °C 2.6 °C 1023.9 hPa NE 1.6 km/h 1.6 km/h 72% 0 mm 0 W/m2
03:58 7.2 °C 2.7 °C 1023.9 hPa ENE 1.6 km/h 3.2 km/h 73% 0 mm 0 W/m2
04:04 7.5 °C 2.9 °C 1023.9 hPa ENE 1.6 km/h 1.6 km/h 73% 0 mm 0 W/m2
04:10 7.6 °C 3.1 °C 1023.6 hPa Calm     73% 0 mm 0 W/m2
04:16 8.3 °C 3.3 °C 1023.6 hPa East 1.6 km/h 8 km/h 71% 0 mm 0 W/m2
04:22 8.9 °C 3.3 °C 1023.9 hPa East 1.6 km/h 9.7 km/h 68% 0 mm 0 W/m2
04:28 9.6 °C 3.5 °C 1023.9 hPa SE 3.2 km/h 9.7 km/h 66% 0 mm 0 W/m2
04:34 9.6 °C 3.3 °C 1023.6 hPa ENE 3.2 km/h 6.4 km/h 65% 0 mm 0 W/m2
04:40 9.7 °C 3.2 °C 1023.6 hPa East 1.6 km/h 3.2 km/h 64% 0 mm 0 W/m2
04:46 9.8 °C 3.3 °C 1023.6 hPa ENE 1.6 km/h 3.2 km/h 64% 0 mm 0 W/m2
04:52 9.8 °C 3.3 °C 1023.9 hPa SE 1.6 km/h 4.8 km/h 64% 0 mm 0 W/m2
04:58 10.1 °C 3.2 °C 1023.6 hPa South 3.2 km/h 8 km/h 62% 0 mm 0 W/m2
05:06 10.6 °C 2.9 °C 1023.9 hPa SE 6.4 km/h 8 km/h 59% 0 mm 0 W/m2
05:12 10.6 °C 3.1 °C 1023.9 hPa SE 4.8 km/h 6.4 km/h 60% 0 mm 0 W/m2
05:18 10.4 °C 2.8 °C 1023.9 hPa SE 4.8 km/h 20.9 km/h 59% 0 mm 0 W/m2
05:24 10.6 °C 2.7 °C 1023.9 hPa ESE 6.4 km/h 6.4 km/h 58% 0 mm 0 W/m2
05:30 10.8 °C 2.7 °C 1023.6 hPa SSE 8 km/h 14.5 km/h 57% 0 mm 0 W/m2
05:36 10.8 °C 2.3 °C 1023.6 hPa SSE 8 km/h 14.5 km/h 56% 0 mm 0 W/m2
05:42 10.8 °C 2.3 °C 1023.2 hPa SSE 8 km/h 12.9 km/h 56% 0 mm 0 W/m2
05:48 10.8 °C 2.4 °C 1023.2 hPa South 11.3 km/h 12.9 km/h 56% 0 mm 0 W/m2
05:54 10.8 °C 2.3 °C 1023.6 hPa SSE 11.3 km/h 17.7 km/h 56% 0 mm 0 W/m2
06:00 10.8 °C 2.2 °C 1023.6 hPa South 9.7 km/h 11.3 km/h 55% 0 mm 0 W/m2
06:06 10.8 °C 2.1 °C 1023.6 hPa SSE 9.7 km/h 11.3 km/h 55% 0 mm 0 W/m2
06:12 10.8 °C 1.8 °C 1023.6 hPa SSE 9.7 km/h 17.7 km/h 54% 0 mm 0 W/m2
06:18 10.8 °C 2.1 °C 1023.6 hPa SSE 8 km/h 17.7 km/h 55% 0 mm 0 W/m2
06:24 10.8 °C 2.1 °C 1023.6 hPa SSE 11.3 km/h 16.1 km/h 55% 0 mm 7 W/m2
06:30 10.8 °C 1.8 °C 1023.6 hPa SSE 12.9 km/h 19.3 km/h 54% 0 mm 12 W/m2
06:36 10.7 °C 1.5 °C 1023.6 hPa South 12.9 km/h 19.3 km/h 53% 0 mm 19 W/m2
06:42 10.7 °C 1.5 °C 1023.6 hPa SE 12.9 km/h 17.7 km/h 53% 0 mm 37 W/m2
06:48 10.7 °C 1.7 °C 1023.6 hPa SSE 9.7 km/h 17.7 km/h 54% 0 mm 40 W/m2
06:54 10.6 °C 1.4 °C 1023.6 hPa SSE 9.7 km/h 12.9 km/h 53% 0 mm 44 W/m2
07:00 10.6 °C 1.9 °C 1023.6 hPa SSE 9.7 km/h 9.7 km/h 55% 0 mm 49 W/m2
07:06 10.6 °C 1.6 °C 1023.9 hPa South 8 km/h 16.1 km/h 54% 0 mm 56 W/m2
07:12 10.6 °C 1.6 °C 1023.9 hPa SE 12.9 km/h 12.9 km/h 54% 0 mm 51 W/m2
07:18 10.4 °C 1.8 °C 1023.6 hPa SSE 9.7 km/h 12.9 km/h 55% 0 mm 40 W/m2
07:24 10.4 °C 1.4 °C 1023.6 hPa SSW 9.7 km/h 19.3 km/h 54% 0 mm 44 W/m2
07:30 10.4 °C 1.4 °C 1023.6 hPa SE 14.5 km/h 14.5 km/h 54% 0 mm 40 W/m2
07:36 10.3 °C 1.4 °C 1023.6 hPa South 14.5 km/h 17.7 km/h 54% 0 mm 32 W/m2
07:42 10.3 °C 1.6 °C 1023.6 hPa SSE 12.9 km/h 12.9 km/h 55% 0 mm 33 W/m2
07:48 10.2 °C 1.8 °C 1023.6 hPa South 9.7 km/h 12.9 km/h 56% 0 mm 35 W/m2
07:54 10.2 °C 1.6 °C 1023.6 hPa ESE 11.3 km/h 16.1 km/h 55% 0 mm 46 W/m2
08:00 10.2 °C 1.6 °C 1023.6 hPa South 11.3 km/h 12.9 km/h 55% 0 mm 53 W/m2
08:06 10.2 °C 1.8 °C 1023.2 hPa SSE 12.9 km/h 14.5 km/h 56% 0 mm 69 W/m2
08:12 10.3 °C 1.9 °C 1023.2 hPa South 9.7 km/h 19.3 km/h 56% 0 mm 65 W/m2
08:18 10.2 °C 2.1 °C 1022.9 hPa SSE 11.3 km/h 20.9 km/h 57% 0 mm 76 W/m2
08:24 10.2 °C 2.1 °C 1022.9 hPa SSE 11.3 km/h 16.1 km/h 57% 0 mm 84 W/m2
08:30 10.3 °C 2.1 °C 1022.9 hPa South 11.3 km/h 14.5 km/h 57% 0 mm 72 W/m2
08:36 10.3 °C 2.4 °C 1022.9 hPa South 12.9 km/h 14.5 km/h 58% 0 mm 51 W/m2
08:42 10.3 °C 2.4 °C 1022.9 hPa SSE 12.9 km/h 12.9 km/h 58% 0 mm 74 W/m2
08:48 10.3 °C 2.4 °C 1022.9 hPa SSE 12.9 km/h 16.1 km/h 58% 0 mm 79 W/m2
08:54 10.4 °C 2.2 °C 1022.9 hPa SE 12.9 km/h 17.7 km/h 57% 0 mm 74 W/m2
09:00 10.3 °C 2.7 °C 1022.6 hPa SSE 12.9 km/h 14.5 km/h 59% 0 mm 98 W/m2
09:06 10.4 °C 2.7 °C 1022.6 hPa SSE 11.3 km/h 14.5 km/h 59% 0 mm 72 W/m2
09:12 10.4 °C 2.5 °C 1022.2 hPa South 11.3 km/h 11.3 km/h 58% 0 mm 76 W/m2
09:18 10.4 °C 3 °C 1022.2 hPa South 11.3 km/h 11.3 km/h 60% 0 mm 54 W/m2
09:24 10.4 °C 2.5 °C 1022.2 hPa South 11.3 km/h 16.1 km/h 58% 0 mm 56 W/m2
09:30 10.6 °C 2.6 °C 1022.2 hPa South 12.9 km/h 12.9 km/h 58% 0 mm 111 W/m2
09:36 10.6 °C 3.2 °C 1021.9 hPa SE 11.3 km/h 22.5 km/h 60% 0 mm 149 W/m2
09:42 10.8 °C 3.6 °C 1021.9 hPa SE 11.3 km/h 16.1 km/h 61% 0 mm 234 W/m2
09:48 11.2 °C 3.3 °C 1021.9 hPa South 12.9 km/h 16.1 km/h 58% 0 mm 364 W/m2
09:54 11.6 °C 3.6 °C 1021.6 hPa SE 12.9 km/h 22.5 km/h 58% 0 mm 209 W/m2
10:00 11.6 °C 3.1 °C 1021.2 hPa SW 11.3 km/h 19.3 km/h 56% 0 mm 211 W/m2
10:06 11.6 °C 3.4 °C 1021.2 hPa South 14.5 km/h 19.3 km/h 57% 0 mm 281 W/m2
10:12 11.9 °C 3.4 °C 1021.2 hPa SE 12.9 km/h 27.4 km/h 56% 0 mm 366 W/m2
10:18 12.2 °C 3.1 °C 1021.2 hPa SSE 16.1 km/h 27.4 km/h 54% 0 mm 339 W/m2
10:24 12.1 °C 3.1 °C 1020.9 hPa SE 16.1 km/h 17.7 km/h 54% 0 mm 216 W/m2
10:30 12.2 °C 3.1 °C 1020.9 hPa SSE 14.5 km/h 14.5 km/h 54% 0 mm 237 W/m2
10:36 12.2 °C 3.4 °C 1020.9 hPa South 14.5 km/h 19.3 km/h 55% 0 mm 272 W/m2
10:42 12.4 °C 3.4 °C 1020.9 hPa SSE 12.9 km/h 17.7 km/h 54% 0 mm 290 W/m2
10:48 12.6 °C 3.2 °C 1020.9 hPa SW 14.5 km/h 20.9 km/h 53% 0 mm 257 W/m2
10:54 12.6 °C 3.2 °C 1020.5 hPa South 16.1 km/h 27.4 km/h 53% 0 mm 248 W/m2
11:00 12.8 °C 3.4 °C 1020.2 hPa SE 14.5 km/h 16.1 km/h 53% 0 mm 295 W/m2
11:06 13 °C 3.6 °C 1020.2 hPa SSE 12.9 km/h 16.1 km/h 53% 0 mm 236 W/m2
11:12 13 °C 3.9 °C 1020.2 hPa South 11.3 km/h 14.5 km/h 54% 0 mm 160 W/m2
11:18 12.8 °C 4.4 °C 1020.2 hPa SSE 11.3 km/h 14.5 km/h 57% 0 mm 146 W/m2
11:24 12.3 °C 4.9 °C 1019.9 hPa South 11.3 km/h 16.1 km/h 61% 0 mm 113 W/m2
11:30 12.1 °C 4.8 °C 1020.2 hPa SE 9.7 km/h 11.3 km/h 61% 0 mm 142 W/m2
11:36 12.1 °C 4.6 °C 1020.2 hPa South 9.7 km/h 11.3 km/h 60% 0 mm 98 W/m2
11:42 12 °C 4.9 °C 1020.2 hPa SSE 9.7 km/h 9.7 km/h 62% 0 mm 81 W/m2
11:48 11.6 °C 5.4 °C 1020.5 hPa SSE 8 km/h 11.3 km/h 66% 0 mm 58 W/m2
11:54 11.2 °C 5.5 °C 1020.5 hPa SSE 8 km/h 8 km/h 68% 0 mm 47 W/m2
12:00 11 °C 5.5 °C 1020.5 hPa SE 8 km/h 9.7 km/h 69% 0 mm 32 W/m2
12:06 10.9 °C 5.9 °C 1020.5 hPa SSE 9.7 km/h 11.3 km/h 71% 3.05 mm 28 W/m2
12:12 10.7 °C 6 °C 1020.5 hPa South 6.4 km/h 8 km/h 73% 7.87 mm 23 W/m2
12:18 10.3 °C 5.9 °C 1020.5 hPa SSE 6.4 km/h 16.1 km/h 74% 5.84 mm 33 W/m2
12:24 10.1 °C 6.2 °C 1020.9 hPa SSE 6.4 km/h 8 km/h 77% 6.6 mm 33 W/m2
12:30 9.8 °C 6.3 °C 1020.9 hPa South 6.4 km/h 6.4 km/h 79% 5.59 mm 32 W/m2
12:36 9.6 °C 6.5 °C 1020.9 hPa SSE 6.4 km/h 11.3 km/h 81% 3.81 mm 37 W/m2
12:42 9.4 °C 6.5 °C 1020.9 hPa South 6.4 km/h 9.7 km/h 82% 8.64 mm 39 W/m2
12:48 9.3 °C 6.7 °C 1020.9 hPa SSE 6.4 km/h 9.7 km/h 84% 10.16 mm 40 W/m2
12:54 9.2 °C 6.8 °C 1020.5 hPa SE 6.4 km/h 8 km/h 85% 4.06 mm 44 W/m2
13:00 9.2 °C 6.8 °C 1020.2 hPa SE 8 km/h 8 km/h 85% 2.54 mm 95 W/m2
13:06 9.2 °C 6.8 °C 1020.2 hPa SE 8 km/h 9.7 km/h 85% 2.79 mm 83 W/m2
13:12 9.2 °C 6.8 °C 1020.2 hPa SSE 8 km/h 11.3 km/h 85% 1.52 mm 102 W/m2
13:18 9.2 °C 6.8 °C 1020.2 hPa SSE 8 km/h 14.5 km/h 85% 1.52 mm 77 W/m2
13:24 9.2 °C 6.8 °C 1019.9 hPa SSE 9.7 km/h 9.7 km/h 85% 1.27 mm 63 W/m2
13:30 9.2 °C 6.7 °C 1019.9 hPa SSE 9.7 km/h 9.7 km/h 84% 0 mm 65 W/m2
13:36 9.2 °C 6.8 °C 1019.9 hPa SSE 8 km/h 9.7 km/h 85% 0 mm 49 W/m2
13:42 9.2 °C 6.8 °C 1019.5 hPa SE 6.4 km/h 17.7 km/h 85% 0 mm 81 W/m2
13:48 9.3 °C 6.8 °C 1019.2 hPa ESE 9.7 km/h 20.9 km/h 84% 0 mm 105 W/m2
13:54 9.4 °C 6.7 °C 1019.2 hPa SSE 11.3 km/h 17.7 km/h 83% 0 mm 88 W/m2
14:00 9.4 °C 6.7 °C 1019.2 hPa SSE 9.7 km/h 14.5 km/h 83% 1.02 mm 98 W/m2
14:06 9.4 °C 6.9 °C 1018.8 hPa SSE 9.7 km/h 14.5 km/h 84% 1.02 mm 116 W/m2
14:12 9.6 °C 7 °C 1018.5 hPa SE 9.7 km/h 9.7 km/h 84% 1.02 mm 74 W/m2
14:18 9.6 °C 6.9 °C 1018.8 hPa SE 9.7 km/h 16.1 km/h 83% 0 mm 72 W/m2
14:24 9.7 °C 7.2 °C 1018.8 hPa SSE 9.7 km/h 9.7 km/h 84% 0 mm 111 W/m2
14:30 9.9 °C 7.2 °C 1018.8 hPa South 8 km/h 8 km/h 83% 0 mm 109 W/m2
14:36 10.1 °C 7.3 °C 1018.5 hPa SSE 6.4 km/h 8 km/h 83% 0 mm 88 W/m2
14:42 10.2 °C 7.3 °C 1018.5 hPa SSE 6.4 km/h 8 km/h 82% 0 mm 54 W/m2
14:48 10.4 °C 7.3 °C 1018.2 hPa South 9.7 km/h 12.9 km/h 81% 0 mm 130 W/m2
14:54 10.6 °C 7.2 °C 1018.5 hPa SSE 9.7 km/h 9.7 km/h 80% 0 mm 77 W/m2
15:00 10.6 °C 7.1 °C 1018.2 hPa South 8 km/h 8 km/h 79% 0 mm 46 W/m2
15:06 10.6 °C 7.1 °C 1018.2 hPa South 8 km/h 14.5 km/h 79% 0 mm 53 W/m2
15:12 10.6 °C 7.1 °C 1018.2 hPa SSE 8 km/h 8 km/h 79% 0 mm 70 W/m2
15:18 10.6 °C 7.1 °C 1018.2 hPa South 8 km/h 8 km/h 79% 0 mm 44 W/m2
15:24 10.6 °C 7.1 °C 1017.8 hPa SE 8 km/h 14.5 km/h 79% 0 mm 51 W/m2
15:30 10.6 °C 7.1 °C 1017.5 hPa SSE 8 km/h 8 km/h 79% 0 mm 51 W/m2
15:36 10.6 °C 7.3 °C 1017.5 hPa SSW 8 km/h 9.7 km/h 80% 0 mm 54 W/m2
15:42 10.6 °C 7.2 °C 1017.2 hPa SSW 6.4 km/h 8 km/h 80% 0 mm 32 W/m2
15:48 10.4 °C 7.3 °C 1017.5 hPa SSE 8 km/h 9.7 km/h 81% 0 mm 40 W/m2
15:54 10.4 °C 7.3 °C 1017.5 hPa South 8 km/h 8 km/h 81% 0 mm 46 W/m2
16:00 10.4 °C 7.5 °C 1017.5 hPa SSW 6.4 km/h 6.4 km/h 82% 0 mm 40 W/m2
16:06 10.5 °C 7.6 °C 1017.5 hPa SSE 3.2 km/h 9.7 km/h 82% 0 mm 39 W/m2
16:12 10.5 °C 7.6 °C 1017.5 hPa SSE 4.8 km/h 4.8 km/h 82% 0 mm 21 W/m2
16:18 10.4 °C 7.7 °C 1017.5 hPa South 3.2 km/h 8 km/h 83% 0 mm 28 W/m2
16:24 10.6 °C 7.6 °C 1017.2 hPa SW 6.4 km/h 9.7 km/h 82% 0 mm 35 W/m2
16:30 10.6 °C 7.7 °C 1017.5 hPa SSE 8 km/h 8 km/h 82% 0 mm 58 W/m2
16:36 10.7 °C 7.9 °C 1017.2 hPa South 8 km/h 8 km/h 83% 1.52 mm 60 W/m2
16:42 10.7 °C 7.9 °C 1017.2 hPa SSW 6.4 km/h 6.4 km/h 83% 1.52 mm 56 W/m2
16:48 10.8 °C 7.8 °C 1017.2 hPa SSE 8 km/h 8 km/h 82% 1.02 mm 62 W/m2
16:54 10.8 °C 8 °C 1017.2 hPa ESE 6.4 km/h 12.9 km/h 83% 0 mm 51 W/m2
17:00 10.9 °C 8 °C 1016.8 hPa SW 8 km/h 8 km/h 82% 0 mm 63 W/m2
17:06 11.1 °C 7.9 °C 1016.8 hPa SSW 8 km/h 8 km/h 81% 0 mm 107 W/m2
17:12 11.2 °C 8.3 °C 1016.8 hPa SSW 4.8 km/h 11.3 km/h 82% 0 mm 86 W/m2
17:18 11.3 °C 8.1 °C 1016.8 hPa SE 4.8 km/h 11.3 km/h 81% 0 mm 40 W/m2
17:24 11.3 °C 8.1 °C 1017.2 hPa SSW 4.8 km/h 8 km/h 81% 0 mm 39 W/m2
17:30 11.3 °C 8 °C 1016.8 hPa SW 6.4 km/h 6.4 km/h 80% 0 mm 42 W/m2
17:36 11.4 °C 8.1 °C 1016.8 hPa SSE 4.8 km/h 6.4 km/h 80% 0 mm 37 W/m2
17:42 11.4 °C 8.1 °C 1017.2 hPa SSE 4.8 km/h 6.4 km/h 80% 0 mm 21 W/m2
17:48 11.6 °C 8.2 °C 1017.2 hPa South 4.8 km/h 11.3 km/h 80% 0 mm 23 W/m2
17:54 11.6 °C 8.3 °C 1016.8 hPa SSW 6.4 km/h 8 km/h 80% 0 mm 16 W/m2
18:00 11.7 °C 8 °C 1016.8 hPa SW 8 km/h 8 km/h 78% 0 mm 16 W/m2
18:06 11.8 °C 8.1 °C 1016.8 hPa SSE 8 km/h 9.7 km/h 78% 0 mm 30 W/m2
18:12 11.6 °C 8.3 °C 1016.5 hPa SSE 3.2 km/h 4.8 km/h 80% 0 mm 16 W/m2
18:18 11.4 °C 8.1 °C 1016.5 hPa SSE 1.6 km/h 4.8 km/h 80% 0 mm 12 W/m2
18:24 11.4 °C 8.1 °C 1016.8 hPa SSE 3.2 km/h 4.8 km/h 80% 0 mm 12 W/m2
18:30 11.3 °C 8.2 °C 1016.8 hPa SSE 1.6 km/h 3.2 km/h 81% 0 mm 9 W/m2
18:36 11.4 °C 8.1 °C 1017.2 hPa SE 1.6 km/h 3.2 km/h 80% 0 mm 5 W/m2
18:42 11.1 °C 8.3 °C 1016.8 hPa SE 1.6 km/h 3.2 km/h 83% 16 mm 5 W/m2
18:48 10.8 °C 8.4 °C 1016.5 hPa SSE 1.6 km/h 4.8 km/h 85% 5.84 mm 16 W/m2
18:54 10.7 °C 8.4 °C 1016.5 hPa SSE 1.6 km/h 1.6 km/h 86% 5.84 mm 0 W/m2
19:00 10.6 °C 8.6 °C 1017.2 hPa Calm   3.2 km/h 87% 10.92 mm 5 W/m2
19:06 10.4 °C 8.6 °C 1017.2 hPa ESE 1.6 km/h 3.2 km/h 88% 6.1 mm 0 W/m2
19:12 10.3 °C 8.4 °C 1017.2 hPa ESE 1.6 km/h 1.6 km/h 88% 55.12 mm 5 W/m2
19:18 10.3 °C 8.6 °C 1017.2 hPa Calm   1.6 km/h 89% 6.6 mm 5 W/m2
19:24 10.3 °C 8.6 °C 1017.2 hPa Calm     89% 3.3 mm 0 W/m2
19:30 10.2 °C 8.7 °C 1017.2 hPa Calm     90% 1.52 mm 0 W/m2
19:36 10.1 °C 8.6 °C 1017.2 hPa Calm     90% 1.02 mm 0 W/m2
19:42 10.1 °C 8.5 °C 1017.2 hPa Calm     90% 0 mm 0 W/m2
19:48 10.1 °C 8.7 °C 1017.2 hPa ESE 1.6 km/h 3.2 km/h 91% 0 mm 0 W/m2
19:54 10.1 °C 8.7 °C 1017.2 hPa ESE 1.6 km/h 1.6 km/h 91% 0 mm 0 W/m2
20:00 10.1 °C 8.7 °C 1017.2 hPa Calm     91% 0 mm 0 W/m2
20:06 10.1 °C 8.7 °C 1017.5 hPa Calm     91% 0 mm 0 W/m2
20:12 10.1 °C 8.7 °C 1017.5 hPa Calm     91% 0 mm 0 W/m2
20:18 10.1 °C 8.7 °C 1017.5 hPa Calm   3.2 km/h 91% 0 mm 0 W/m2
20:24 10.1 °C 8.7 °C 1017.5 hPa ESE 1.6 km/h 4.8 km/h 91% 0 mm 0 W/m2
20:30 10.1 °C 8.7 °C 1017.5 hPa ESE 1.6 km/h 1.6 km/h 91% 0 mm 0 W/m2
20:36 10.2 °C 8.8 °C 1017.5 hPa SSE 3.2 km/h 8 km/h 91% 0 mm 0 W/m2
20:42 10.2 °C 8.8 °C 1017.5 hPa SSE 3.2 km/h 4.8 km/h 91% 0 mm 0 W/m2
20:48 10.3 °C 8.9 °C 1017.5 hPa SSE 1.6 km/h 4.8 km/h 91% 0 mm 0 W/m2
20:54 10.3 °C 8.9 °C 1017.5 hPa SSE 1.6 km/h 1.6 km/h 91% 0 mm 0 W/m2
21:00 10.3 °C 8.9 °C 1017.5 hPa SSE 3.2 km/h 6.4 km/h 91% 0 mm 0 W/m2
21:06 10.3 °C 8.9 °C 1017.2 hPa South 3.2 km/h 6.4 km/h 91% 0 mm 0 W/m2
21:12 10.3 °C 8.9 °C 1017.5 hPa South 1.6 km/h 3.2 km/h 91% 0 mm 0 W/m2
21:18 10.3 °C 8.9 °C 1017.2 hPa SSE 1.6 km/h 6.4 km/h 91% 0 mm 0 W/m2
21:24 10.2 °C 8.7 °C 1017.2 hPa SSE 1.6 km/h 1.6 km/h 90% 0 mm 0 W/m2
21:30 10.2 °C 8.6 °C 1017.2 hPa Calm     90% 0 mm 0 W/m2
21:36 10.1 °C 8.6 °C 1017.2 hPa Calm     90% 0 mm 0 W/m2
21:42 10 °C 8.6 °C 1017.2 hPa Calm     91% 0 mm 0 W/m2
21:48 10 °C 8.6 °C 1017.2 hPa Calm     91% 0 mm 0 W/m2
21:54 9.9 °C 8.6 °C 1017.5 hPa Calm     91% 0 mm 0 W/m2
22:00 9.9 °C 8.5 °C 1017.5 hPa Calm     91% 0 mm 0 W/m2
22:06 9.9 °C 8.5 °C 1017.5 hPa Calm     91% 0 mm 0 W/m2
22:12 9.9 °C 8.5 °C 1017.5 hPa Calm     91% 0 mm 0 W/m2
22:18 9.9 °C 8.5 °C 1017.5 hPa Calm     91% 0 mm 0 W/m2
22:24 9.9 °C 8.5 °C 1017.8 hPa Calm     91% 0 mm 0 W/m2
22:30 9.9 °C 8.7 °C 1017.8 hPa Calm     92% 0 mm 0 W/m2
22:36 9.9 °C 8.7 °C 1017.8 hPa Calm     92% 0 mm 0 W/m2
22:42 9.9 °C 8.7 °C 1017.8 hPa Calm     92% 0 mm 0 W/m2
22:48 9.9 °C 8.7 °C 1017.8 hPa Calm     92% 0 mm 0 W/m2
22:54 9.9 °C 8.7 °C 1017.8 hPa Calm     92% 0 mm 0 W/m2
23:00 9.9 °C 8.7 °C 1017.8 hPa Calm     92% 0 mm 0 W/m2
23:06 9.9 °C 8.7 °C 1017.8 hPa Calm     92% 0 mm 0 W/m2
23:12 9.9 °C 8.7 °C 1017.8 hPa Calm     92% 0 mm 0 W/m2
23:18 9.9 °C 8.7 °C 1017.8 hPa Calm     92% 0 mm 0 W/m2
23:24 9.9 °C 8.7 °C 1017.8 hPa Calm     92% 0 mm 0 W/m2
23:30 9.9 °C 8.7 °C 1017.8 hPa Calm     92% 0 mm 0 W/m2
23:36 9.9 °C 8.9 °C 1017.8 hPa Calm     93% 0 mm 0 W/m2
23:42 9.9 °C 8.9 °C 1017.8 hPa Calm     93% 0 mm 0 W/m2
23:48 9.9 °C 8.9 °C 1018.2 hPa Calm     93% 0 mm 0 W/m2
23:54 9.9 °C 8.9 °C 1017.8 hPa Calm     93% 0 mm 0 W/m2
Country Meadow, Clay, NY, USA
Compliments of Weather Underground - 2 mb